Time;durP1;ratioP1;P1;durP2;ratioP2;P2;SDS_P1;SDS_P2;PMS_P1;PMS_P2;Temp;Humidity;BMP_temperature;BMP_pressure;BME280_temperature;BME280_humidity;BME280_pressure;Samples;Min_cycle;Max_cycle;Signal;HPM_P1;HPM_P2
2021/12/18 00:00:22;;;;;;;5.38;2.42;;;;;;;;;;5017940;28;20046;-67
2021/12/18 00:02:48;;;;;;;5.97;2.70;;;;;;;;;;5000449;28;20042;-67
2021/12/18 00:05:14;;;;;;;5.95;3.10;;;;;;;;;;5018529;28;20038;-67
2021/12/18 00:07:41;;;;;;;6.68;2.65;;;;;;;;;;5018067;28;20388;-67
2021/12/18 00:10:09;;;;;;;8.75;3.05;;;;;;;;;;5018110;28;20033;-67
2021/12/18 00:12:35;;;;;;;5.35;3.00;;;;;;;;;;5017503;28;20046;-67
2021/12/18 00:15:02;;;;;;;6.60;3.08;;;;;;;;;;5018052;28;20446;-67
2021/12/18 00:17:29;;;;;;;9.65;3.22;;;;;;;;;;5018022;28;20121;-67
2021/12/18 00:19:55;;;;;;;11.68;3.17;;;;;;;;;;5018589;28;20046;-67
2021/12/18 00:22:22;;;;;;;8.75;3.58;;;;;;;;;;5017907;28;20077;-67
2021/12/18 00:24:48;;;;;;;10.23;3.50;;;;;;;;;;5018899;28;20037;-67
2021/12/18 00:27:16;;;;;;;17.98;3.28;;;;;;;;;;5018255;28;20079;-67
2021/12/18 00:29:44;;;;;;;24.00;3.35;;;;;;;;;;5017539;28;20053;-67
2021/12/18 00:32:15;;;;;;;13.10;3.25;;;;;;;;;;5017906;28;20056;-67
2021/12/18 00:34:41;;;;;;;20.88;2.90;;;;;;;;;;5017752;28;20045;-67
2021/12/18 00:37:07;;;;;;;4.22;1.95;;;;;;;;;;5018015;28;20046;-67
2021/12/18 00:39:39;;;;;;;8.38;2.15;;;;;;;;;;5018191;28;20065;-67
2021/12/18 00:42:23;;;;;;;11.13;2.38;;;;;;;;;;5000735;28;20500;-67
2021/12/18 00:44:49;;;;;;;4.35;2.13;;;;;;;;;;5017397;28;20108;-67
2021/12/18 00:47:15;;;;;;;3.83;1.85;;;;;;;;;;5017840;28;20038;-67
2021/12/18 00:49:42;;;;;;;5.50;2.20;;;;;;;;;;5018490;28;20096;-67
2021/12/18 00:52:08;;;;;;;8.80;2.20;;;;;;;;;;5017803;28;20049;-67
2021/12/18 00:54:37;;;;;;;15.77;2.80;;;;;;;;;;5000613;28;20041;-67
2021/12/18 00:57:03;;;;;;;9.00;2.17;;;;;;;;;;5018424;28;20045;-67
2021/12/18 00:59:31;;;;;;;5.53;2.13;;;;;;;;;;5018021;28;20049;-67
2021/12/18 01:01:58;;;;;;;13.65;2.50;;;;;;;;;;5017937;28;20121;-67
2021/12/18 01:04:24;;;;;;;6.35;1.88;;;;;;;;;;5017806;28;20876;-67
2021/12/18 01:06:50;;;;;;;4.53;1.70;;;;;;;;;;5018313;28;20099;-67
2021/12/18 01:09:20;;;;;;;6.05;2.03;;;;;;;;;;5018065;28;20034;-67
2021/12/18 01:11:48;;;;;;;6.97;1.80;;;;;;;;;;5017689;28;20122;-67
2021/12/18 01:14:38;;;;;;;3.47;1.83;;;;;;;;;;4999652;28;20054;-67
2021/12/18 01:25:07;;;;;;;6.07;2.70;;;;;;;;;;5021177;28;20041;-67
2021/12/18 01:27:33;;;;;;;8.93;2.67;;;;;;;;;;5021409;28;20120;-67
2021/12/18 01:29:59;;;;;;;5.82;2.47;;;;;;;;;;5020422;28;20424;-67
2021/12/18 01:32:27;;;;;;;4.07;2.13;;;;;;;;;;5020190;28;20404;-67
2021/12/18 01:34:53;;;;;;;6.65;2.47;;;;;;;;;;5021632;28;20050;-67
2021/12/18 01:37:20;;;;;;;7.15;2.50;;;;;;;;;;5020837;28;20038;-67
2021/12/18 01:39:46;;;;;;;3.80;2.08;;;;;;;;;;5002719;28;20081;-67
2021/12/18 01:52:42;;;;;;;5.47;1.77;;;;;;;;;;5020674;28;20049;-67
2021/12/18 01:55:13;;;;;;;2.83;1.50;;;;;;;;;;5020764;28;20096;-67
2021/12/18 01:57:39;;;;;;;3.08;1.48;;;;;;;;;;5020904;28;20380;-67
2021/12/18 02:00:20;;;;;;;2.38;1.25;;;;;;;;;;5020100;28;20046;-67
2021/12/18 02:02:47;;;;;;;3.95;1.33;;;;;;;;;;5020168;28;20030;-67
2021/12/18 02:05:14;;;;;;;6.25;1.60;;;;;;;;;;5020050;28;20038;-67
2021/12/18 02:07:42;;;;;;;8.40;1.83;;;;;;;;;;5020483;28;20353;-67
2021/12/18 02:10:16;;;;;;;4.00;1.48;;;;;;;;;;5020712;28;20042;-67
2021/12/18 02:13:20;;;;;;;4.82;2.00;;;;;;;;;;5020137;28;20117;-67
2021/12/18 02:21:20;;;;;;;3.42;1.80;;;;;;;;;;5020173;28;20073;-67
2021/12/18 02:23:46;;;;;;;14.32;2.13;;;;;;;;;;5002222;28;20050;-67
2021/12/18 02:26:13;;;;;;;8.63;1.50;;;;;;;;;;5020354;28;20034;-67
2021/12/18 02:28:41;;;;;;;4.43;1.38;;;;;;;;;;5018924;28;20132;-67
2021/12/18 02:31:07;;;;;;;5.72;1.23;;;;;;;;;;5020137;28;20516;-67
2021/12/18 02:33:33;;;;;;;4.38;1.42;;;;;;;;;;5018326;28;20053;-67
2021/12/18 02:36:01;;;;;;;3.67;1.80;;;;;;;;;;5018965;28;20050;-67
2021/12/18 02:38:46;;;;;;;3.50;2.00;;;;;;;;;;5018972;28;20044;-67
2021/12/18 02:43:40;;;;;;;2.10;1.30;;;;;;;;;;5018110;28;20048;-67
2021/12/18 02:46:08;;;;;;;4.50;1.70;;;;;;;;;;5019204;28;20065;-67
2021/12/18 02:48:38;;;;;;;4.22;1.52;;;;;;;;;;5019253;28;20037;-67
2021/12/18 02:51:05;;;;;;;3.28;1.50;;;;;;;;;;5017948;28;20121;-67
2021/12/18 02:53:32;;;;;;;6.75;1.58;;;;;;;;;;5019018;28;20546;-67
2021/12/18 02:56:00;;;;;;;7.75;2.20;;;;;;;;;;5019480;28;20065;-67
2021/12/18 02:58:26;;;;;;;2.72;1.50;;;;;;;;;;5018429;28;20069;-67
2021/12/18 03:00:55;;;;;;;3.22;1.55;;;;;;;;;;5001079;28;20050;-67
2021/12/18 03:03:25;;;;;;;3.03;1.33;;;;;;;;;;5018512;28;20176;-67
2021/12/18 03:06:06;;;;;;;3.22;1.70;;;;;;;;;;5018834;28;20038;-67
2021/12/18 03:08:43;;;;;;;3.38;2.25;;;;;;;;;;5018360;28;20038;-67
2021/12/18 03:22:44;;;;;;;3.83;1.88;;;;;;;;;;5019040;28;20046;-67
2021/12/18 03:25:04;;;;;;;2.80;1.50;;;;;;;;;;5018367;28;20049;-67
2021/12/18 03:27:31;;;;;;;2.45;1.45;;;;;;;;;;5017874;28;20619;-67
2021/12/18 03:29:57;;;;;;;3.35;1.77;;;;;;;;;;5018361;28;20056;-67
2021/12/18 03:32:24;;;;;;;2.63;1.35;;;;;;;;;;5018750;28;20442;-67
2021/12/18 03:34:52;;;;;;;3.00;1.48;;;;;;;;;;5018692;28;20034;-67
2021/12/18 03:37:19;;;;;;;3.15;1.45;;;;;;;;;;5019132;28;20041;-67
2021/12/18 03:39:47;;;;;;;2.88;1.33;;;;;;;;;;5018280;28;20053;-67
2021/12/18 03:42:13;;;;;;;4.55;1.70;;;;;;;;;;5017506;28;20046;-67
2021/12/18 03:44:39;;;;;;;3.90;1.58;;;;;;;;;;5017707;28;20069;-67
2021/12/18 03:47:06;;;;;;;6.10;1.85;;;;;;;;;;5018323;28;20053;-67
2021/12/18 03:49:32;;;;;;;3.22;1.65;;;;;;;;;;5000207;28;20073;-67
2021/12/18 03:51:58;;;;;;;7.45;1.88;;;;;;;;;;5017982;28;20424;-67
2021/12/18 03:54:24;;;;;;;4.97;1.95;;;;;;;;;;5017892;28;20045;-67
2021/12/18 03:56:50;;;;;;;4.97;2.20;;;;;;;;;;4999880;28;20042;-67
2021/12/18 03:59:16;;;;;;;4.32;1.80;;;;;;;;;;5018299;28;20453;-67
2021/12/18 04:01:42;;;;;;;7.63;2.40;;;;;;;;;;5000361;28;20044;-67
2021/12/18 04:04:10;;;;;;;5.53;2.25;;;;;;;;;;5017232;28;20064;-67
2021/12/18 04:06:39;;;;;;;5.60;2.20;;;;;;;;;;5018083;28;20038;-67
2021/12/18 04:09:06;;;;;;;6.00;2.40;;;;;;;;;;5018413;28;20041;-67
2021/12/18 04:11:32;;;;;;;5.43;2.35;;;;;;;;;;5016801;28;20042;-67
2021/12/18 04:14:01;;;;;;;4.68;1.98;;;;;;;;;;5017952;28;20377;-67
2021/12/18 04:16:28;;;;;;;4.90;1.85;;;;;;;;;;5017987;28;20095;-67
2021/12/18 04:18:54;;;;;;;4.20;1.98;;;;;;;;;;5017674;28;20103;-67
2021/12/18 04:21:20;;;;;;;4.13;1.90;;;;;;;;;;5018461;28;20503;-67
2021/12/18 04:23:46;;;;;;;4.25;1.90;;;;;;;;;;5018093;28;20034;-67
2021/12/18 04:26:13;;;;;;;4.03;1.60;;;;;;;;;;5017889;28;20042;-67
2021/12/18 04:28:39;;;;;;;5.05;2.22;;;;;;;;;;5018061;28;20058;-67
2021/12/18 04:31:05;;;;;;;6.35;2.05;;;;;;;;;;5017676;28;20041;-67
2021/12/18 04:33:31;;;;;;;5.30;2.08;;;;;;;;;;5017333;28;20061;-67
2021/12/18 04:35:58;;;;;;;3.42;1.50;;;;;;;;;;5017626;28;20125;-67
2021/12/18 04:38:24;;;;;;;4.43;1.30;;;;;;;;;;5018840;28;20052;-67
2021/12/18 04:40:51;;;;;;;3.13;1.42;;;;;;;;;;5017745;28;20046;-67
2021/12/18 04:43:17;;;;;;;2.72;1.23;;;;;;;;;;5017751;28;20393;-67
2021/12/18 04:45:44;;;;;;;4.20;1.30;;;;;;;;;;5018351;28;20073;-67
2021/12/18 04:48:10;;;;;;;3.30;1.02;;;;;;;;;;5017959;28;20038;-67
2021/12/18 04:50:37;;;;;;;4.30;1.42;;;;;;;;;;5000324;28;20041;-67
2021/12/18 04:53:03;;;;;;;2.50;1.27;;;;;;;;;;5018495;28;20064;-67
2021/12/18 04:55:29;;;;;;;2.20;0.88;;;;;;;;;;5017396;28;20037;-67
2021/12/18 04:57:58;;;;;;;3.40;1.40;;;;;;;;;;5020798;28;20106;-67
2021/12/18 05:00:30;;;;;;;2.10;1.25;;;;;;;;;;5021708;28;20595;-67
2021/12/18 05:03:01;;;;;;;2.70;1.05;;;;;;;;;;5021080;28;20045;-67
2021/12/18 05:05:27;;;;;;;3.70;1.40;;;;;;;;;;5021821;28;20072;-67
2021/12/18 05:07:55;;;;;;;2.42;1.15;;;;;;;;;;5021898;28;20469;-67
2021/12/18 05:10:21;;;;;;;4.82;1.30;;;;;;;;;;5020919;28;20042;-67
2021/12/18 05:12:47;;;;;;;2.70;1.20;;;;;;;;;;5021911;28;20038;-67
2021/12/18 05:15:14;;;;;;;3.53;1.52;;;;;;;;;;5021710;28;20077;-67
2021/12/18 05:17:40;;;;;;;3.42;1.50;;;;;;;;;;5021450;28;20053;-67
2021/12/18 05:20:07;;;;;;;3.45;1.33;;;;;;;;;;5021307;28;20046;-67
2021/12/18 05:22:33;;;;;;;3.92;1.40;;;;;;;;;;5021278;28;20060;-67
2021/12/18 05:25:00;;;;;;;4.68;1.35;;;;;;;;;;5021738;28;20044;-67
2021/12/18 05:27:26;;;;;;;2.95;1.27;;;;;;;;;;5021890;28;20453;-67
2021/12/18 05:29:53;;;;;;;4.72;1.27;;;;;;;;;;5020985;28;20061;-67
2021/12/18 05:32:19;;;;;;;4.15;1.35;;;;;;;;;;5021596;28;20050;-67
2021/12/18 05:34:45;;;;;;;4.70;1.50;;;;;;;;;;5020948;28;20033;-67
2021/12/18 05:37:19;;;;;;;3.15;1.60;;;;;;;;;;5021275;28;20050;-67
2021/12/18 05:39:45;;;;;;;4.65;1.38;;;;;;;;;;5021453;28;20069;-67
2021/12/18 05:42:11;;;;;;;6.57;1.75;;;;;;;;;;5020791;28;20491;-67
2021/12/18 05:44:38;;;;;;;5.80;2.17;;;;;;;;;;5020864;28;20045;-67
2021/12/18 05:47:05;;;;;;;5.97;1.60;;;;;;;;;;5021035;28;20034;-67
2021/12/18 05:49:31;;;;;;;5.07;1.70;;;;;;;;;;5019799;28;20045;-67
2021/12/18 05:51:57;;;;;;;6.25;1.55;;;;;;;;;;5021408;28;20050;-67
2021/12/18 05:54:23;;;;;;;6.20;2.03;;;;;;;;;;5020976;28;20444;-67
2021/12/18 05:56:50;;;;;;;6.38;1.95;;;;;;;;;;5020058;28;20544;-67
2021/12/18 05:59:17;;;;;;;8.48;2.55;;;;;;;;;;5020874;28;20046;-67
2021/12/18 06:01:43;;;;;;;4.55;2.08;;;;;;;;;;5021270;28;20085;-67
2021/12/18 06:04:11;;;;;;;7.50;2.53;;;;;;;;;;5020479;28;20042;-67
2021/12/18 06:06:37;;;;;;;5.18;2.00;;;;;;;;;;5021188;28;20044;-67
2021/12/18 06:09:03;;;;;;;7.07;2.35;;;;;;;;;;5020465;28;20040;-67
2021/12/18 06:11:31;;;;;;;8.55;2.47;;;;;;;;;;5019628;28;20088;-67
2021/12/18 06:13:57;;;;;;;9.48;2.75;;;;;;;;;;5020483;28;20049;-67
2021/12/18 06:16:23;;;;;;;4.72;2.13;;;;;;;;;;5020294;28;20042;-67
2021/12/18 06:18:51;;;;;;;8.93;3.10;;;;;;;;;;5019111;28;20392;-67
2021/12/18 06:21:17;;;;;;;7.13;2.67;;;;;;;;;;5019784;28;20046;-67
2021/12/18 06:23:51;;;;;;;6.55;2.65;;;;;;;;;;5018844;28;20042;-67
2021/12/18 06:26:18;;;;;;;7.88;2.28;;;;;;;;;;5018736;28;20176;-67
2021/12/18 06:28:44;;;;;;;7.30;2.10;;;;;;;;;;5019255;28;20058;-67
2021/12/18 06:31:10;;;;;;;5.72;1.98;;;;;;;;;;5000727;28;20073;-67
2021/12/18 06:33:37;;;;;;;7.35;2.60;;;;;;;;;;5018025;28;20042;-67
2021/12/18 06:36:05;;;;;;;7.13;2.45;;;;;;;;;;5001426;28;20050;-67
2021/12/18 06:38:31;;;;;;;4.95;2.22;;;;;;;;;;5019192;28;20034;-67
2021/12/18 06:40:57;;;;;;;6.13;2.42;;;;;;;;;;5018624;28;20042;-67
2021/12/18 06:43:24;;;;;;;6.82;2.42;;;;;;;;;;5018793;28;20037;-67
2021/12/18 06:45:50;;;;;;;5.65;2.22;;;;;;;;;;5019034;28;20045;-67
2021/12/18 06:48:17;;;;;;;8.60;2.70;;;;;;;;;;5018374;28;20033;-67
2021/12/18 06:50:43;;;;;;;6.68;2.40;;;;;;;;;;5019610;28;20034;-67
2021/12/18 06:53:09;;;;;;;6.80;2.80;;;;;;;;;;5018548;28;20093;-67
2021/12/18 06:55:36;;;;;;;7.53;2.70;;;;;;;;;;5018787;28;20100;-67
2021/12/18 06:58:02;;;;;;;7.85;2.65;;;;;;;;;;5019129;28;20040;-67
2021/12/18 07:00:29;;;;;;;9.18;2.90;;;;;;;;;;5019117;28;20461;-67
2021/12/18 07:02:56;;;;;;;10.07;3.10;;;;;;;;;;5018202;28;20044;-67
2021/12/18 07:05:22;;;;;;;7.90;2.63;;;;;;;;;;5019102;28;20479;-67
2021/12/18 07:07:50;;;;;;;7.95;2.88;;;;;;;;;;5019243;28;20038;-67
2021/12/18 07:10:16;;;;;;;9.18;3.15;;;;;;;;;;5018451;28;20412;-67
2021/12/18 07:12:43;;;;;;;14.32;3.25;;;;;;;;;;5018869;28;20041;-67
2021/12/18 07:15:10;;;;;;;10.73;3.15;;;;;;;;;;5019382;28;20457;-67
2021/12/18 07:17:38;;;;;;;7.38;2.67;;;;;;;;;;5000964;28;20057;-67
2021/12/18 07:20:06;;;;;;;9.18;3.28;;;;;;;;;;5019180;28;20448;-67
2021/12/18 07:22:32;;;;;;;9.73;3.60;;;;;;;;;;5018748;28;20054;-67
2021/12/18 07:25:03;;;;;;;9.88;3.03;;;;;;;;;;5018407;28;20033;-67
2021/12/18 07:27:29;;;;;;;9.55;3.30;;;;;;;;;;5018882;28;20038;-67
2021/12/18 07:29:55;;;;;;;11.02;2.67;;;;;;;;;;5018272;28;20054;-67
2021/12/18 07:32:22;;;;;;;13.63;3.47;;;;;;;;;;5018610;28;20053;-67
2021/12/18 07:34:48;;;;;;;11.18;3.50;;;;;;;;;;5019663;28;20049;-67
2021/12/18 07:37:15;;;;;;;8.93;3.20;;;;;;;;;;5001108;28;20069;-67
2021/12/18 07:39:41;;;;;;;8.95;2.65;;;;;;;;;;5018074;28;20041;-67
2021/12/18 07:42:07;;;;;;;8.55;3.17;;;;;;;;;;5018746;28;20455;-67
2021/12/18 07:44:34;;;;;;;7.72;3.13;;;;;;;;;;5018681;28;20045;-67
2021/12/18 07:47:00;;;;;;;10.90;3.15;;;;;;;;;;5018935;28;20046;-67
2021/12/18 07:49:27;;;;;;;9.10;3.22;;;;;;;;;;5018722;28;20057;-67
2021/12/18 07:51:59;;;;;;;11.65;3.53;;;;;;;;;;5018878;28;20057;-67
2021/12/18 07:54:25;;;;;;;10.25;3.42;;;;;;;;;;5018266;28;20050;-67
2021/12/18 07:56:51;;;;;;;8.55;3.17;;;;;;;;;;5018602;28;20057;-67
2021/12/18 07:59:17;;;;;;;9.50;3.40;;;;;;;;;;5018771;28;20042;-67
2021/12/18 08:01:43;;;;;;;13.18;3.47;;;;;;;;;;5017759;28;20049;-67
2021/12/18 08:04:10;;;;;;;11.75;3.10;;;;;;;;;;5018337;28;20092;-67
2021/12/18 08:06:36;;;;;;;10.48;3.40;;;;;;;;;;5018189;28;20077;-67
2021/12/18 08:09:03;;;;;;;8.30;3.17;;;;;;;;;;5017186;28;20050;-67
2021/12/18 08:11:29;;;;;;;9.45;3.00;;;;;;;;;;5018849;28;20038;-67
2021/12/18 08:13:55;;;;;;;9.30;2.92;;;;;;;;;;5018537;28;20492;-67
2021/12/18 08:16:21;;;;;;;9.80;2.90;;;;;;;;;;5017363;28;20269;-67
2021/12/18 08:18:47;;;;;;;9.63;3.70;;;;;;;;;;5017807;28;20045;-67
2021/12/18 08:21:14;;;;;;;9.57;3.25;;;;;;;;;;5018353;28;20038;-67
2021/12/18 08:23:40;;;;;;;11.32;3.55;;;;;;;;;;5017729;28;20046;-67
2021/12/18 08:26:07;;;;;;;9.70;3.90;;;;;;;;;;5017367;28;20480;-67
2021/12/18 08:28:33;;;;;;;8.10;3.15;;;;;;;;;;5017440;28;20376;-67
2021/12/18 08:30:59;;;;;;;11.75;3.95;;;;;;;;;;5017575;28;20049;-67
2021/12/18 08:33:25;;;;;;;12.05;3.80;;;;;;;;;;5021156;28;20099;-67
2021/12/18 08:35:52;;;;;;;8.00;3.50;;;;;;;;;;5003846;28;20077;-67
2021/12/18 08:38:18;;;;;;;9.80;3.95;;;;;;;;;;5021747;28;20601;-67
2021/12/18 08:40:44;;;;;;;11.80;3.72;;;;;;;;;;5021961;28;20393;-67
2021/12/18 08:43:10;;;;;;;12.35;3.35;;;;;;;;;;5022865;28;20070;-67
2021/12/18 08:45:36;;;;;;;12.15;4.18;;;;;;;;;;5022288;28;20042;-67
2021/12/18 08:48:03;;;;;;;10.15;4.00;;;;;;;;;;5022313;28;20061;-67
2021/12/18 08:50:29;;;;;;;9.18;4.38;;;;;;;;;;5022304;28;20045;-67
2021/12/18 08:52:57;;;;;;;11.80;4.63;;;;;;;;;;5021598;28;20080;-67
2021/12/18 08:55:23;;;;;;;15.88;5.20;;;;;;;;;;5022311;28;20068;-67
2021/12/18 08:57:50;;;;;;;11.70;4.47;;;;;;;;;;5021636;28;20046;-67
2021/12/18 09:00:18;;;;;;;16.50;4.50;;;;;;;;;;5021395;28;20689;-67
2021/12/18 09:02:46;;;;;;;13.70;4.90;;;;;;;;;;5021631;28;20150;-67
2021/12/18 09:05:12;;;;;;;12.57;4.38;;;;;;;;;;5004252;28;20408;-67
2021/12/18 09:07:38;;;;;;;11.80;4.43;;;;;;;;;;5021041;28;20034;-67
2021/12/18 09:10:06;;;;;;;12.88;4.75;;;;;;;;;;5021226;28;20044;-67
2021/12/18 09:12:33;;;;;;;12.85;5.15;;;;;;;;;;5020868;28;20080;-67
2021/12/18 09:15:00;;;;;;;17.75;5.30;;;;;;;;;;5020971;28;20378;-67
2021/12/18 09:17:27;;;;;;;14.73;5.28;;;;;;;;;;5020779;28;20038;-67
2021/12/18 09:19:53;;;;;;;14.70;4.90;;;;;;;;;;5021652;28;20038;-67
2021/12/18 09:22:19;;;;;;;13.93;4.72;;;;;;;;;;5020991;28;20055;-67
2021/12/18 09:24:47;;;;;;;14.77;4.43;;;;;;;;;;5020681;28;20045;-67
2021/12/18 09:27:15;;;;;;;11.18;4.53;;;;;;;;;;5021326;28;20118;-67
2021/12/18 09:29:42;;;;;;;15.50;5.28;;;;;;;;;;5020697;28;20062;-67
2021/12/18 09:32:09;;;;;;;14.77;5.68;;;;;;;;;;5021089;28;20742;-67
2021/12/18 09:34:35;;;;;;;17.25;5.38;;;;;;;;;;5021199;28;20044;-67
2021/12/18 09:37:04;;;;;;;11.13;4.82;;;;;;;;;;5020612;28;20042;-67
2021/12/18 09:39:31;;;;;;;15.98;5.32;;;;;;;;;;5021179;28;20038;-67
2021/12/18 09:41:58;;;;;;;15.20;5.75;;;;;;;;;;5021210;28;20133;-67
2021/12/18 09:44:26;;;;;;;13.50;4.93;;;;;;;;;;5020110;28;20037;-67
2021/12/18 09:46:53;;;;;;;13.55;4.80;;;;;;;;;;5021438;28;20046;-67
2021/12/18 09:49:22;;;;;;;13.95;5.50;;;;;;;;;;5021543;28;20038;-67
2021/12/18 09:51:49;;;;;;;14.27;5.20;;;;;;;;;;5020705;28;20045;-67
2021/12/18 09:54:15;;;;;;;12.48;5.00;;;;;;;;;;5021202;28;20488;-67
2021/12/18 09:56:43;;;;;;;11.65;5.40;;;;;;;;;;5021325;28;20069;-67
2021/12/18 09:59:09;;;;;;;11.18;5.55;;;;;;;;;;5021192;28;20172;-67
2021/12/18 10:01:36;;;;;;;11.38;4.40;;;;;;;;;;5020929;28;20042;-67
2021/12/18 10:04:04;;;;;;;11.90;5.25;;;;;;;;;;5020380;28;20065;-67
2021/12/18 10:06:45;;;;;;;15.77;5.18;;;;;;;;;;5020851;28;20105;-67
2021/12/18 10:09:17;;;;;;;11.05;5.05;;;;;;;;;;5020844;28;20049;-67
2021/12/18 10:11:46;;;;;;;18.98;5.93;;;;;;;;;;5020745;28;20065;-67
2021/12/18 10:14:17;;;;;;;13.73;5.43;;;;;;;;;;5020912;28;20045;-67
2021/12/18 10:16:47;;;;;;;13.45;5.18;;;;;;;;;;5020668;28;20041;-67
2021/12/18 10:19:33;;;;;;;13.65;5.45;;;;;;;;;;5021710;28;20079;-67
2021/12/18 10:22:05;;;;;;;14.40;5.68;;;;;;;;;;5002544;28;20046;-67
2021/12/18 10:24:32;;;;;;;11.90;4.90;;;;;;;;;;5020815;28;20038;-67
2021/12/18 10:27:01;;;;;;;12.10;5.28;;;;;;;;;;5020609;28;20101;-67
2021/12/18 10:29:30;;;;;;;14.65;5.10;;;;;;;;;;5020281;28;20065;-67
2021/12/18 10:32:04;;;;;;;13.90;4.88;;;;;;;;;;5002696;28;20054;-67
2021/12/18 10:34:32;;;;;;;14.55;4.55;;;;;;;;;;5003203;28;20054;-67
2021/12/18 10:37:08;;;;;;;12.23;5.28;;;;;;;;;;5020014;28;20091;-67
2021/12/18 10:39:35;;;;;;;16.85;5.43;;;;;;;;;;5020723;28;20095;-67
2021/12/18 10:42:22;;;;;;;9.68;4.65;;;;;;;;;;5020154;28;20266;-67
2021/12/18 10:45:07;;;;;;;11.73;4.30;;;;;;;;;;5019441;28;20041;-67
2021/12/18 10:47:54;;;;;;;15.32;4.90;;;;;;;;;;5020859;28;20053;-67
2021/12/18 10:50:26;;;;;;;10.02;4.65;;;;;;;;;;5020868;28;20073;-67
2021/12/18 10:52:54;;;;;;;11.18;4.43;;;;;;;;;;5020035;28;20095;-67
2021/12/18 10:55:26;;;;;;;9.65;4.45;;;;;;;;;;5020247;28;20099;-67
2021/12/18 10:57:53;;;;;;;8.43;3.50;;;;;;;;;;5021287;28;20049;-67
2021/12/18 11:00:40;;;;;;;8.68;3.80;;;;;;;;;;5002416;28;20073;-67
2021/12/18 11:03:25;;;;;;;10.93;3.97;;;;;;;;;;5019678;28;20081;-67
2021/12/18 11:06:08;;;;;;;7.90;4.30;;;;;;;;;;5020434;28;20463;-67
2021/12/18 11:08:37;;;;;;;12.52;4.05;;;;;;;;;;5020565;28;20121;-67
2021/12/18 11:13:53;;;;;;;6.80;3.10;;;;;;;;;;5019570;28;20526;-67
2021/12/18 11:16:19;;;;;;;9.75;4.22;;;;;;;;;;5020702;28;20048;-67
2021/12/18 11:18:47;;;;;;;9.90;4.18;;;;;;;;;;5020385;28;20093;-67
2021/12/18 11:21:13;;;;;;;10.18;3.95;;;;;;;;;;5020056;28;20049;-67
2021/12/18 11:23:42;;;;;;;8.23;4.38;;;;;;;;;;5020310;28;20042;-67
2021/12/18 11:26:09;;;;;;;8.15;3.95;;;;;;;;;;5020289;28;20034;-67
2021/12/18 11:28:38;;;;;;;11.13;3.75;;;;;;;;;;5019966;28;20069;-67
2021/12/18 11:31:04;;;;;;;9.20;3.42;;;;;;;;;;5020361;28;20050;-67
2021/12/18 11:33:31;;;;;;;4.82;3.10;;;;;;;;;;5021045;28;20125;-67
2021/12/18 11:36:00;;;;;;;9.80;2.85;;;;;;;;;;5019123;28;20097;-67
2021/12/18 11:38:26;;;;;;;7.13;2.92;;;;;;;;;;5020435;28;20042;-67
2021/12/18 11:40:55;;;;;;;6.97;3.30;;;;;;;;;;5020645;28;20040;-67
2021/12/18 11:43:30;;;;;;;5.65;2.70;;;;;;;;;;5019626;28;20042;-67
2021/12/18 11:45:56;;;;;;;6.20;2.55;;;;;;;;;;5019825;28;20076;-67
2021/12/18 11:48:24;;;;;;;8.15;2.83;;;;;;;;;;5020656;28;20042;-67
2021/12/18 11:50:51;;;;;;;7.07;3.55;;;;;;;;;;5002372;28;20098;-67
2021/12/18 11:53:20;;;;;;;6.63;3.45;;;;;;;;;;5019631;28;20046;-67
2021/12/18 11:55:49;;;;;;;5.22;2.90;;;;;;;;;;5020238;28;20113;-67
2021/12/18 11:58:16;;;;;;;5.45;3.00;;;;;;;;;;5019415;28;20125;-67
2021/12/18 12:00:45;;;;;;;6.38;3.30;;;;;;;;;;5020427;28;20136;-67
2021/12/18 12:03:12;;;;;;;9.00;3.88;;;;;;;;;;5020130;28;20045;-67
2021/12/18 12:05:48;;;;;;;9.48;3.55;;;;;;;;;;5020189;28;20029;-67
2021/12/18 12:08:30;;;;;;;7.25;3.00;;;;;;;;;;5019481;28;20056;-67
2021/12/18 12:11:15;;;;;;;8.05;3.33;;;;;;;;;;5019501;28;20049;-67
2021/12/18 12:13:53;;;;;;;9.57;3.03;;;;;;;;;;5019013;28;20048;-67
2021/12/18 12:16:19;;;;;;;4.32;2.67;;;;;;;;;;5020160;28;20042;-67
2021/12/18 12:19:05;;;;;;;7.93;3.45;;;;;;;;;;5020561;28;20038;-67
2021/12/18 12:21:42;;;;;;;6.40;3.15;;;;;;;;;;5020264;28;20045;-67
2021/12/18 12:24:09;;;;;;;6.63;2.88;;;;;;;;;;5020058;28;20117;-67
2021/12/18 12:26:35;;;;;;;6.75;3.00;;;;;;;;;;5019579;28;20057;-67
2021/12/18 12:29:02;;;;;;;9.95;3.47;;;;;;;;;;5018707;28;20081;-67
2021/12/18 12:31:30;;;;;;;9.70;3.30;;;;;;;;;;5020404;28;20052;-67
2021/12/18 12:34:15;;;;;;;8.55;4.10;;;;;;;;;;5020773;28;20048;-67
2021/12/18 12:36:45;;;;;;;8.50;3.05;;;;;;;;;;5002192;28;20072;-67
2021/12/18 12:39:14;;;;;;;5.95;2.92;;;;;;;;;;5019467;28;20057;-67
2021/12/18 12:41:42;;;;;;;7.65;3.15;;;;;;;;;;5018889;28;20046;-67
2021/12/18 12:44:18;;;;;;;9.10;3.30;;;;;;;;;;5020054;28;20053;-67
2021/12/18 12:46:45;;;;;;;8.07;3.25;;;;;;;;;;5019926;28;20044;-67
2021/12/18 12:49:15;;;;;;;6.90;2.88;;;;;;;;;;5019607;28;20044;-67
2021/12/18 12:52:07;;;;;;;8.13;3.25;;;;;;;;;;5002135;28;20428;-67
2021/12/18 12:54:39;;;;;;;8.60;3.30;;;;;;;;;;5002080;28;20113;-67
2021/12/18 12:57:25;;;;;;;9.95;3.17;;;;;;;;;;5019517;28;20050;-67
2021/12/18 12:59:55;;;;;;;10.43;3.15;;;;;;;;;;5019160;28;20655;-67
2021/12/18 13:02:22;;;;;;;8.75;3.35;;;;;;;;;;5019350;28;20053;-67
2021/12/18 13:04:48;;;;;;;10.20;2.78;;;;;;;;;;5019304;28;20037;-67
2021/12/18 13:07:16;;;;;;;8.30;3.13;;;;;;;;;;5019774;28;20096;-67
2021/12/18 13:09:49;;;;;;;14.23;3.45;;;;;;;;;;5018610;28;20583;-67
2021/12/18 13:12:17;;;;;;;6.13;2.67;;;;;;;;;;5018566;28;20049;-67
2021/12/18 13:14:46;;;;;;;9.23;2.70;;;;;;;;;;5018986;28;20056;-67
2021/12/18 13:17:38;;;;;;;7.13;3.10;;;;;;;;;;5019126;28;20046;-67
2021/12/18 13:20:06;;;;;;;9.82;2.85;;;;;;;;;;5018472;28;20053;-67
2021/12/18 13:22:33;;;;;;;10.98;2.65;;;;;;;;;;5023499;28;20122;-67
2021/12/18 13:25:15;;;;;;;9.18;2.58;;;;;;;;;;5023264;28;20042;-67
2021/12/18 13:27:51;;;;;;;9.57;3.17;;;;;;;;;;5002557;28;20039;-67
2021/12/18 13:30:20;;;;;;;7.32;2.28;;;;;;;;;;5003604;28;20035;-67
2021/12/18 13:32:52;;;;;;;9.50;2.70;;;;;;;;;;5003509;28;20069;-67
2021/12/18 13:35:19;;;;;;;9.80;2.88;;;;;;;;;;4985349;28;20101;-67
2021/12/18 13:37:58;;;;;;;9.50;2.63;;;;;;;;;;5002764;28;20038;-67
2021/12/18 13:40:24;;;;;;;8.55;2.20;;;;;;;;;;5002645;28;20038;-67
2021/12/18 13:43:23;;;;;;;10.20;2.58;;;;;;;;;;5001461;28;20046;-67
2021/12/18 13:45:49;;;;;;;8.80;2.60;;;;;;;;;;4959345;28;20513;-67
2021/12/18 13:48:16;;;;;;;12.45;3.28;;;;;;;;;;5002734;28;20056;-67
2021/12/18 13:50:42;;;;;;;7.45;2.13;;;;;;;;;;5002642;28;20046;-67
2021/12/18 13:53:08;;;;;;;10.50;2.28;;;;;;;;;;5002621;28;20050;-67
2021/12/18 13:55:39;;;;;;;10.75;2.67;;;;;;;;;;5002552;28;20461;-67
2021/12/18 13:58:05;;;;;;;9.18;2.75;;;;;;;;;;5001432;28;20104;-67
2021/12/18 14:00:52;;;;;;;6.38;2.40;;;;;;;;;;5001847;28;20046;-67
2021/12/18 14:03:26;;;;;;;9.82;2.25;;;;;;;;;;4987985;28;20050;-67
2021/12/18 14:05:54;;;;;;;9.02;2.33;;;;;;;;;;5002084;28;20053;-67
2021/12/18 14:08:21;;;;;;;8.85;1.95;;;;;;;;;;5002296;28;20323;-67
2021/12/18 14:10:49;;;;;;;6.28;2.38;;;;;;;;;;5000985;28;20038;-67
2021/12/18 14:13:21;;;;;;;9.95;3.10;;;;;;;;;;5001628;28;20237;-67
2021/12/18 14:15:47;;;;;;;9.45;2.28;;;;;;;;;;5001301;28;20496;-67
2021/12/18 14:18:29;;;;;;;10.02;2.72;;;;;;;;;;4984267;28;20042;-67
2021/12/18 14:20:56;;;;;;;7.57;2.35;;;;;;;;;;5002166;28;20129;-67
2021/12/18 14:23:44;;;;;;;8.90;2.47;;;;;;;;;;5002280;28;20046;-67
2021/12/18 14:26:29;;;;;;;8.45;2.67;;;;;;;;;;5009266;28;20069;-67
2021/12/18 14:28:56;;;;;;;14.18;3.03;;;;;;;;;;5020709;28;20082;-67
2021/12/18 14:31:27;;;;;;;13.60;3.20;;;;;;;;;;5020015;28;20046;-67
2021/12/18 14:33:55;;;;;;;10.00;2.60;;;;;;;;;;5020483;28;20049;-67
2021/12/18 14:36:42;;;;;;;6.55;2.50;;;;;;;;;;5021414;28;20059;-67
2021/12/18 14:39:16;;;;;;;8.35;3.00;;;;;;;;;;5019973;28;20033;-67
2021/12/18 14:41:51;;;;;;;13.95;3.40;;;;;;;;;;5002307;28;20409;-67
2021/12/18 14:44:17;;;;;;;9.35;3.10;;;;;;;;;;5020551;28;20149;-67
2021/12/18 14:46:43;;;;;;;10.88;2.80;;;;;;;;;;5020673;28;20043;-67
2021/12/18 14:49:11;;;;;;;10.73;2.60;;;;;;;;;;5019866;28;20038;-67
2021/12/18 14:51:37;;;;;;;9.38;2.70;;;;;;;;;;5020320;28;20073;-67
2021/12/18 14:54:04;;;;;;;8.25;2.85;;;;;;;;;;5020653;28;20046;-67
2021/12/18 14:56:31;;;;;;;8.38;3.30;;;;;;;;;;5019576;28;20136;-67
2021/12/18 14:58:57;;;;;;;7.20;2.70;;;;;;;;;;5020068;28;20037;-67
2021/12/18 15:01:24;;;;;;;9.45;2.90;;;;;;;;;;5020082;28;20420;-67
2021/12/18 15:03:54;;;;;;;9.38;2.70;;;;;;;;;;5018657;28;20366;-67
2021/12/18 15:06:26;;;;;;;8.45;3.15;;;;;;;;;;5019659;28;20125;-67
2021/12/18 15:09:02;;;;;;;9.43;3.50;;;;;;;;;;5020099;28;20073;-67
2021/12/18 15:11:36;;;;;;;7.53;2.90;;;;;;;;;;5019102;28;20049;-67
2021/12/18 15:14:03;;;;;;;8.30;2.88;;;;;;;;;;5019641;28;20045;-67
2021/12/18 15:16:39;;;;;;;16.27;3.15;;;;;;;;;;5019701;28;20041;-67
2021/12/18 15:19:10;;;;;;;9.07;2.80;;;;;;;;;;5019509;28;20050;-67
2021/12/18 15:21:44;;;;;;;8.82;3.22;;;;;;;;;;5019497;28;20337;-67
2021/12/18 15:24:12;;;;;;;7.80;2.80;;;;;;;;;;5019208;28;20041;-67
2021/12/18 15:26:39;;;;;;;9.82;3.08;;;;;;;;;;5018521;28;20072;-67
2021/12/18 15:29:07;;;;;;;10.07;3.15;;;;;;;;;;5019099;28;20049;-67